Weather observations for the past three days for
Fuaamotu International Airport
Imperial (Metric)
Date Time (+13) Wind (mph) Vis. (mi.) Weather Sky Cond. Temperature (ºF) Relative Humidity Wind Chill (°F) Heat Index (°F) Pressure Precipitation (in)
Air Dwpt 6 hour altimeter (in) sea level (mb) 1 hr 3 hr 6 hr
Max. Min.
06 21:00 SE 20 G 36 0.00 Overcast FEW016 OVC100 73.4 69.8 89% 0 0.0
06 20:00 SE 20 G 38 0.00 Mostly Cloudy FEW016 BKN100 75.2 64.4 69% 77 0 0.0
06 19:00 E 23 G 38 0.00 Mostly Cloudy and Breezy FEW016 BKN100 73.4 68 83% 0 0.0
06 18:00 SE 23 G 38 0.00 Mostly Cloudy and Breezy FEW015 SCT030 BKN100 73.4 68 83% 0 0.0
06 11:00 E 20 G 32 0.00 Light Rain FEW006 SCT015TCU OVC100 73.4 71.6 94% 0 0.0
06 10:00 SE 17 0.00 Light Rain SCT006 SCT015TCU OVC100 73.4 71.6 94% 0 0.0
06 09:00 SE 10 G 24 0.00 Light Rain SCT006 SCT015TCU OVC100 73.4 71.6 94% 0 0.0
06 08:00 SE 12 G 24 0.00 Light Rain SCT008 SCT015TCU OVC110 75.2 71.6 89% 75 0 0.0
06 07:00 SE 12 G 25 0.00 Light Rain FEW008 SCT015 OVC110 75.2 69.8 83% 75 0 0.0
06 06:00 SE 12 G 31 0.00 Overcast FEW008 SCT015TCU OVC110 75.2 69.8 83% 75 0 0.0
06 03:00 E 13 G 28 0.00 Mostly Cloudy FEW014TCU BKN110 77 68 74% 79 0 0.0
05 20:00 E 16 G 33 0.00 Overcast FEW014 OVC110 77 68 74% 79 0 0.0
05 19:00 E 16 G 33 0.00 Mostly Cloudy FEW014 BKN110 77 68 74% 79 0 0.0
05 18:00 E 16 G 35 0.00 Overcast FEW014 OVC110 77 66.2 69% 79 0 0.0
05 17:00 E 16 G 35 0.00 Overcast FEW010 SCT016TCU OVC110 77 68 74% 79 0 0.0
05 16:00 E 15 G 32 0.00 Overcast SCT009 BKN016TCU OVC110 77 69.8 79% 79 0 0.0
05 15:00 E 14 G 33 0.00 Overcast FEW009 SCT016TCU OVC110 77 69.8 79% 79 0 0.0
05 14:00 E 15 G 36 0.00 Overcast FEW009 SCT016TCU OVC110 77 71.6 83% 78 0 0.0
05 12:00 E 16 G 36 0.00 Overcast FEW010 SCT016TCU OVC110 78.8 73.4 84% 82 0 0.0
05 11:00 E 14 G 31 0.00 Overcast FEW010 SCT016TCU OVC110 78.8 71.6 79% 82 0 0.0
05 10:00 E 13 G 29 0.00 Overcast FEW010 SCT016TCU OVC110 77 71.6 83% 78 0 0.0
05 09:00 E 12 G 28 0.00 Overcast FEW010 SCT015TCU OVC110 77 71.6 83% 78 0 0.0
05 08:00 E 12 G 29 0.00 Overcast FEW010 SCT015TCU OVC110 77 71.6 83% 78 0 0.0
05 07:00 E 10 G 22 0.00 Mostly Cloudy FEW010 SCT014TCU BKN110 77 69.8 79% 79 0 0.0
05 06:00 E 13 G 29 0.00 Overcast FEW009 SCT014 OVC110 77 69.8 79% 79 0 0.0
05 05:00 E 13 G 28 0.00 Light Showers Rain FEW009 SCT014 OVC110 77 69.8 79% 79 0 0.0
05 04:00 E 10 0.00 Overcast FEW010 FEW014 OVC110 77 69.8 79% 79 0 0.0
05 03:00 SE 10 0.00 Overcast FEW010 SCT014 OVC110 77 71.6 83% 78 0 0.0
05 02:00 E 10 G 28 0.00 Mostly Cloudy SCT014 BKN110 77 71.6 83% 78 0 0.0
05 01:00 E 22 0.00 Mostly Cloudy and Breezy SCT014 BKN110 77 71.6 83% 78 0 0.0
05 00:00 E 13 G 25 0.00 Mostly Cloudy FEW014 BKN110 77 69.8 79% 79 0 0.0
04 22:00 E 9 G 24 0.00 Overcast FEW015 OVC120 77 68 74% 79 0 0.0
04 21:00 E 10 G 23 0.00 Overcast FEW015 OVC120 77 68 74% 79 0 0.0
04 20:00 E 10 G 25 0.00 Overcast FEW015 OVC120 77 68 74% 79 0 0.0
04 19:00 E 10 G 23 0.00 Mostly Cloudy FEW015 BKN120 77 68 74% 79 0 0.0
04 18:00 E 10 G 23 0.00 Mostly Cloudy FEW015 BKN120 77 68 74% 79 0 0.0
04 17:00 E 8 G 20 0.00 Overcast FEW015 OVC120 78.8 68 70% 81 0 0.0
04 16:00 E 9 G 22 0.00 Overcast FEW010 SCT015 OVC120 78.8 66.2 65% 81 0 0.0
04 15:00 E 9 G 22 0.00 Overcast SCT015 OVC120 78.8 68 70% 81 0 0.0
04 14:00 E 9 G 21 0.00 Overcast SCT015 OVC120 78.8 69.8 74% 81 0 0.0
04 13:00 SE 10 0.00 Overcast SCT015 OVC120 78.8 69.8 74% 81 0 0.0
04 12:00 SE 8 G 22 0.00 Overcast SCT014 OVC120 77 68 74% 79 0 0.0
04 11:00 E 14 0.00 Overcast FEW014 OVC120 78.8 69.8 74% 81 0 0.0
04 10:00 SE 8 0.00 Overcast FEW014 OVC120 77 66.2 69% 79 0 0.0
04 09:00 SE 8 0.00 Overcast FEW014 OVC120 77 68 74% 79 0 0.0
04 07:00 SE 10 0.00 Overcast FEW014 OVC120 75.2 68 78% 76 0 0.0
04 06:00 E 8 0.00 Mostly Cloudy FEW008 SCT015 BKN120 75.2 66.2 74% 77 0 0.0
04 05:00 SE 8 0.00 Mostly Cloudy FEW008 SCT015 BKN270 75.2 66.2 74% 77 0 0.0
04 04:00 SE 8 0.00 Mostly Cloudy SCT015 BKN270 75.2 66.2 74% 77 0 0.0
04 03:00 SE 8 0.00 Mostly Cloudy SCT015 BKN270 75.2 66.2 74% 77 0 0.0
04 02:00 SE 8 0.00 Mostly Cloudy FEW015 BKN270 93.2 66.2 41% 96 0 0.0
04 01:00 SE 10 0.00 Mostly Cloudy FEW015 BKN270 75.2 62.6 65% 77 0 0.0
03 23:00 SE 9 0.00 Mostly Cloudy FEW015 BKN270 75.2 64.4 69% 77 0 0.0
Date Time (+13) Wind (mph) Vis. (mi.) Weather Sky Cond. Air Dwpt Max. Min. Relative Humidity Wind Chill (°F) Heat Index (°F) altimeter (in) sea level (mb) 1 hr 3 hr 6 hr
6 hour
Temperature (ºF) Pressure Precipitation (in)